Airfield :
LOGIN :

Register | Disclaimer

   EN    FR    IT 

 










Legend :    VFR   Marginal VFR   IFR   Intensive IFR   Very Intensive IFR
Visi :
Ceiling :
>= 8 km
>= 3000ft
5 to 8 km
1000 to 3000 ft
1500m to 5 km
500 to 1000 ft
800 to 1500m
200 to 500 ft
< 800m
< 200 ft
Symbols :   Thunderstorms  Fog  Heavy snow  Heavy precipitations  Wind > 20 kt
SIGMETs :     Misc.  Thunderstorms  Icing  Turbulence  Mountain Waves  Volcanic Ashes







- Airport Elevation : 37 ft
- IATA code : OLB


LIEO - Olbia Costa Smeralda

CURRENT METAR :
  • 181150Z 02006KT 360V060 9999 SCT030 16/11 Q1016

EXPIRED METARs :
  • 181120Z 36004KT 290V030 9999 SCT030 16/11 Q1016
  • 181050Z 29004KT 270V330 9999 SCT025 15/11 Q1016
  • 181020Z 32003KT 280V360 9999 SCT025 15/11 Q1017
  • 180950Z VRB02KT 9999 SCT030 15/10 Q1017
  • 180920Z 01003KT 9999 SCT030 14/10 Q1017

TAF TAF LIEO
Valid from the 18 at 12:00 until the 19 at 12:00 UTC


181100Z 1812/1912 02010KT 9999 FEW030
BECMG 1818/1820 VRB05KT
BECMG 1907/1909 24012KT
No reported NOTAMs for that airfield.
1 SIGMET reported for the Roma FIR (LIRR) :
 
Severe turbulence
LIRR SIGMET 3 VALID 181000/181300 LIIB
LIRR ROMA FIR SEV TURB FCST WI N3852 E01859 - N3853 E01710 - N3900 E01628 - N3743 E01657 - N3742 E01859 - N3852 E01859 BLW FL180 MOV SE NC=



MET'MAP, your aeronautical weather chart ! - Copyright ORBIFLY December 2007 - Disclaimer

ORBIFLY MET'MAP TEAM :

Programming & Development : Alexandra Zaïnal
Concept & Development : Baudouin d'Aumeries
Co-Development & Prog : Marc-Olivier Méhu
Technical & hardware support : Manuel Goepfert

Contact : metmap@orbifly.com




SOURCES & CREDITS :

   NOAA